Amherst, South Dakota
Current Conditions -  °F | °C
As of 9:53 AM on Thursday 27 Nov 2014 (Local Time) from KABR Reporting Station
Clear Clear  
Wind Chill: -19°   Ceiling: Unl
Heat Index: -19°   Visibility: 10mi
Dew Point: -23°   Wind: 3mph
Humidity: 75%   Direction: 170°S
Pressure: 30.45"   Gusts: NA
Location:  45.74°N, 97.92°W
Report Text: KABR 271553Z AUTO 17003KT 10SM CLR M19/M23 A3045 RMK AO2 SLP351 T11941228 $
Loading
Personal Weather Stations






























Interactive Weather Map New forecast layout! Learn more

10-Day Weather Forecast

Advertisements
Track Severe Weather on mobile